createdAt,value
2019-03-23T00:02:49.976Z,58.68
2019-03-23T00:06:57.644Z,58.75
2019-03-23T00:11:05.251Z,58.55
2019-03-23T00:15:13.493Z,58.78
2019-03-23T00:19:20.918Z,58.25
2019-03-23T00:23:28.597Z,58.45
2019-03-23T00:27:36.298Z,58.78
2019-03-23T00:31:43.817Z,58.93
2019-03-23T00:35:51.365Z,59.09
2019-03-23T00:39:59.019Z,58.41
2019-03-23T00:44:07.574Z,59.46
2019-03-23T00:48:15.164Z,59.38
2019-03-23T00:52:22.649Z,59.50
2019-03-23T00:56:30.202Z,59.96
2019-03-23T01:00:38.054Z,60.41
2019-03-23T01:04:45.775Z,60.90
2019-03-23T01:08:53.456Z,61.30
2019-03-23T01:13:01.285Z,61.48
2019-03-23T01:17:08.928Z,61.34
2019-03-23T01:21:16.704Z,61.71
2019-03-23T01:25:24.376Z,61.80
2019-03-23T01:29:32.100Z,62.45
2019-03-23T01:33:39.671Z,62.54
2019-03-23T01:37:47.481Z,62.65
2019-03-23T01:41:55.239Z,63.06
2019-03-23T01:46:03.500Z,63.64
2019-03-23T01:50:11.630Z,63.78
2019-03-23T01:54:19.177Z,63.67
2019-03-23T01:58:26.780Z,63.73
2019-03-23T02:02:34.530Z,64.13
2019-03-23T02:06:42.114Z,64.56
2019-03-23T02:10:49.749Z,64.47
2019-03-23T02:14:57.322Z,64.85
2019-03-23T02:19:05.081Z,65.04
2019-03-23T02:23:12.652Z,64.94
2019-03-23T02:27:20.264Z,65.51
2019-03-23T02:31:28.116Z,65.46
2019-03-23T02:35:35.768Z,65.45
2019-03-23T02:39:43.348Z,66.12
2019-03-23T02:43:51.073Z,66.46
2019-03-23T02:47:59.092Z,66.69
2019-03-23T02:52:06.830Z,65.77
2019-03-23T02:56:14.452Z,66.64
2019-03-23T03:00:22.553Z,66.94
2019-03-23T03:04:30.262Z,66.65
2019-03-23T03:08:37.995Z,67.03
2019-03-23T03:12:45.566Z,67.66
2019-03-23T03:16:53.123Z,67.92
2019-03-23T03:21:00.605Z,67.77
2019-03-23T03:25:08.956Z,68.12
2019-03-23T03:29:16.531Z,68.79
2019-03-23T03:33:24.263Z,68.93
2019-03-23T03:37:31.854Z,70.20
2019-03-23T03:41:39.915Z,70.28
2019-03-23T03:45:47.502Z,69.78
2019-03-23T03:49:55.107Z,69.53
2019-03-23T03:54:02.686Z,70.44
2019-03-23T03:58:10.369Z,70.98
2019-03-23T04:02:18.035Z,70.66
2019-03-23T04:06:25.721Z,71.42
2019-03-23T04:10:33.242Z,71.27
2019-03-23T04:14:40.738Z,71.29
2019-03-23T04:18:48.249Z,72.09
2019-03-23T04:22:55.854Z,73.18
2019-03-23T04:27:05.184Z,73.46
2019-03-23T04:31:12.645Z,72.81
2019-03-23T04:35:20.306Z,73.65
2019-03-23T04:39:27.930Z,73.76
2019-03-23T04:43:35.498Z,73.47
2019-03-23T04:47:43.041Z,74.03
2019-03-23T04:51:50.735Z,74.00
2019-03-23T04:55:58.259Z,74.32
2019-03-23T05:00:06.832Z,74.92
2019-03-23T05:04:14.498Z,75.04
2019-03-23T05:08:32.857Z,74.77
2019-03-23T05:12:32.885Z,75.32
2019-03-23T05:16:40.605Z,74.94
2019-03-23T05:20:48.210Z,74.36
2019-03-23T05:24:55.761Z,74.34
2019-03-23T05:29:03.303Z,74.73
2019-03-23T05:33:10.946Z,74.52
2019-03-23T05:37:18.511Z,75.23
2019-03-23T05:41:26.120Z,75.68
2019-03-23T05:45:33.683Z,75.75
2019-03-23T05:49:41.365Z,75.75
2019-03-23T05:53:48.895Z,75.96
2019-03-23T05:57:56.429Z,76.87
2019-03-23T06:02:05.075Z,76.68
2019-03-23T06:06:12.636Z,77.18
2019-03-23T06:10:20.170Z,76.75
2019-03-23T06:14:27.716Z,77.32
2019-03-23T06:18:35.388Z,77.22
2019-03-23T06:22:43.190Z,77.13
2019-03-23T06:26:50.764Z,75.78
2019-03-23T06:30:58.414Z,74.94
2019-03-23T06:35:07.698Z,73.95
2019-03-23T06:39:15.229Z,73.56
2019-03-23T06:43:22.731Z,72.95
2019-03-23T06:47:30.340Z,72.73
2019-03-23T06:51:37.890Z,72.89
2019-03-23T06:55:45.566Z,73.43
2019-03-23T06:59:53.254Z,72.55
2019-03-23T07:04:01.014Z,71.29
2019-03-23T07:08:09.705Z,70.60
2019-03-23T07:12:17.277Z,70.12
2019-03-23T07:16:24.973Z,69.81
2019-03-23T07:20:32.652Z,69.13
2019-03-23T07:24:40.307Z,68.33
2019-03-23T07:28:48.006Z,67.53
2019-03-23T07:32:55.712Z,66.55
2019-03-23T07:37:03.386Z,65.34
2019-03-23T07:41:11.080Z,65.03
2019-03-23T07:45:19.040Z,64.08
2019-03-23T07:49:26.715Z,62.67
2019-03-23T07:53:34.878Z,61.55
2019-03-23T07:57:42.705Z,61.24
2019-03-23T08:01:50.241Z,59.89
2019-03-23T08:05:57.910Z,59.06
2019-03-23T08:10:06.021Z,58.75
2019-03-23T08:14:13.626Z,58.34
2019-03-23T08:18:21.097Z,57.95
2019-03-23T08:22:29.434Z,57.33
2019-03-23T08:26:37.039Z,56.78
2019-03-23T08:30:44.799Z,54.19
2019-03-23T08:34:52.508Z,52.71
2019-03-23T08:39:00.436Z,51.23
2019-03-23T08:43:09.639Z,49.96
2019-03-23T08:47:17.335Z,48.27
2019-03-23T08:51:25.034Z,46.59
2019-03-23T08:55:32.663Z,45.94
2019-03-23T08:59:40.472Z,44.04
2019-03-23T09:03:52.708Z,43.94
2019-03-23T09:07:57.614Z,43.62
2019-03-23T09:12:05.702Z,42.05
2019-03-23T09:16:13.321Z,41.44
2019-03-23T09:20:20.986Z,40.34
2019-03-23T09:24:28.689Z,39.60
2019-03-23T09:28:36.308Z,38.87
2019-03-23T09:32:44.435Z,38.50
2019-03-23T09:36:52.293Z,37.80
2019-03-23T09:41:00.184Z,38.96
2019-03-23T09:45:09.593Z,37.56
2019-03-23T09:49:17.372Z,38.13
2019-03-23T09:53:25.023Z,38.34
2019-03-23T09:57:32.684Z,39.07
2019-03-23T10:01:40.366Z,39.87
2019-03-23T10:05:48.231Z,40.44
2019-03-23T10:09:55.869Z,40.69
2019-03-23T10:14:03.663Z,41.11
2019-03-23T10:18:11.312Z,40.90
2019-03-23T10:22:18.836Z,41.44
2019-03-23T10:26:26.787Z,41.10
2019-03-23T10:30:34.862Z,40.59
2019-03-23T10:34:42.495Z,42.39
2019-03-23T10:38:50.102Z,41.28
2019-03-23T10:42:57.985Z,40.20
2019-03-23T10:47:07.072Z,39.25
2019-03-23T10:51:16.495Z,39.51
2019-03-23T10:55:24.305Z,39.46
2019-03-23T10:59:32.035Z,37.75
2019-03-23T11:03:40.079Z,38.53
2019-03-23T11:07:49.303Z,37.77
2019-03-23T11:11:57.305Z,38.36
2019-03-23T11:16:04.818Z,39.08
2019-03-23T11:20:13.141Z,38.98
2019-03-23T11:24:20.835Z,37.58
2019-03-23T11:28:28.732Z,37.05
2019-03-23T11:32:36.482Z,36.42
2019-03-23T11:36:44.117Z,36.81
2019-03-23T11:40:55.085Z,35.94
2019-03-23T11:45:01.184Z,36.25
2019-03-23T11:49:08.968Z,36.42
2019-03-23T11:53:16.794Z,36.50
2019-03-23T11:57:24.670Z,35.46
2019-03-23T12:01:32.403Z,34.62
2019-03-23T12:05:40.275Z,34.33
2019-03-23T12:09:48.035Z,34.00
2019-03-23T12:13:55.642Z,32.94
2019-03-23T12:18:06.818Z,33.06
2019-03-23T12:22:14.577Z,33.86
2019-03-23T12:26:22.483Z,32.50
2019-03-23T12:30:31.389Z,33.55
2019-03-23T12:34:39.411Z,33.66
2019-03-23T12:38:47.016Z,33.61
2019-03-23T12:42:54.874Z,34.82
2019-03-23T12:47:04.567Z,34.23
2019-03-23T12:51:11.868Z,34.30
2019-03-23T12:55:19.642Z,34.53
2019-03-23T12:59:37.302Z,34.08
2019-03-23T13:03:46.957Z,33.64
2019-03-23T13:07:56.097Z,34.43
2019-03-23T13:12:03.810Z,33.53
2019-03-23T13:16:11.575Z,33.84
2019-03-23T13:20:19.773Z,33.66
2019-03-23T13:24:27.582Z,35.99
2019-03-23T13:28:35.455Z,35.13
2019-03-23T13:32:43.282Z,34.37
2019-03-23T13:37:21.603Z,33.27
2019-03-23T13:41:29.358Z,34.25
2019-03-23T13:45:42.773Z,33.60
2019-03-23T13:49:49.273Z,33.49
2019-03-23T13:54:00.022Z,33.53
2019-03-23T13:58:15.678Z,33.53
2019-03-23T14:02:23.280Z,33.25
2019-03-23T14:06:31.146Z,33.17
2019-03-23T14:10:38.943Z,32.53
2019-03-23T14:14:48.348Z,33.11
2019-03-23T14:18:55.975Z,32.48
2019-03-23T14:23:03.824Z,32.03
2019-03-23T14:27:13.106Z,32.91
2019-03-23T14:31:21.055Z,32.71
2019-03-23T14:35:29.099Z,33.16
2019-03-23T14:39:37.071Z,33.16
2019-03-23T14:43:44.765Z,34.83
2019-03-23T14:47:52.583Z,35.24
2019-03-23T14:52:01.527Z,36.68
2019-03-23T14:56:11.348Z,38.07
2019-03-23T15:00:34.513Z,39.01
2019-03-23T15:04:42.363Z,40.69
2019-03-23T15:08:50.032Z,41.41
2019-03-23T15:12:57.826Z,42.51
2019-03-23T15:17:05.430Z,43.18
2019-03-23T15:21:13.027Z,43.38
2019-03-23T15:25:20.873Z,43.81
2019-03-23T15:29:30.439Z,44.42
2019-03-23T15:33:41.129Z,44.89
2019-03-23T15:37:49.186Z,45.40
2019-03-23T15:41:57.069Z,45.99
2019-03-23T15:46:04.886Z,46.10
2019-03-23T15:50:16.034Z,46.29
2019-03-23T15:54:23.653Z,46.78
2019-03-23T15:58:31.335Z,47.03
2019-03-23T16:02:39.256Z,47.89
2019-03-23T16:06:47.014Z,47.57
2019-03-23T16:10:54.707Z,48.08
2019-03-23T16:15:02.401Z,48.36
2019-03-23T16:19:10.124Z,48.58
2019-03-23T16:23:17.857Z,48.72
2019-03-23T16:27:25.399Z,49.30
2019-03-23T16:31:33.029Z,50.31
2019-03-23T16:35:40.861Z,51.34
2019-03-23T16:39:49.778Z,51.98
2019-03-23T16:43:57.486Z,52.78
2019-03-23T16:48:05.193Z,52.71
2019-03-23T16:52:12.809Z,53.18
2019-03-23T16:56:20.497Z,53.58
2019-03-23T17:00:39.480Z,54.31
2019-03-23T17:04:47.212Z,54.82
2019-03-23T17:08:55.099Z,55.33
2019-03-23T17:13:03.001Z,55.69
2019-03-23T17:17:13.928Z,56.12
2019-03-23T17:21:24.273Z,56.30
2019-03-23T17:25:32.212Z,57.34
2019-03-23T17:29:40.401Z,57.58
2019-03-23T17:33:48.718Z,57.88
2019-03-23T17:37:56.481Z,58.24
2019-03-23T17:42:05.072Z,58.91
2019-03-23T17:46:12.963Z,59.28
2019-03-23T17:50:23.707Z,59.54
2019-03-23T17:54:32.994Z,60.00
2019-03-23T17:58:44.297Z,60.92
2019-03-23T18:02:52.266Z,60.75
2019-03-23T18:07:00.228Z,61.33
2019-03-23T18:11:08.005Z,61.50
2019-03-23T18:15:17.104Z,61.58
2019-03-23T18:19:24.602Z,61.88
2019-03-23T18:23:32.290Z,62.60
2019-03-23T18:27:39.862Z,61.61
2019-03-23T18:31:47.406Z,60.65
2019-03-23T18:35:54.919Z,59.11
2019-03-23T18:40:02.658Z,58.56
2019-03-23T18:44:16.085Z,58.72
2019-03-23T18:48:19.705Z,59.01
2019-03-23T18:52:27.370Z,59.47
2019-03-23T18:56:34.948Z,59.71
2019-03-23T19:00:44.438Z,59.63
2019-03-23T19:04:51.986Z,60.06
2019-03-23T19:09:01.259Z,60.31
2019-03-23T19:13:10.721Z,60.55
2019-03-23T19:17:19.065Z,61.13
2019-03-23T19:21:27.255Z,61.16
2019-03-23T19:25:35.387Z,61.51
2019-03-23T19:29:43.421Z,61.78
2019-03-23T19:33:52.853Z,62.54
2019-03-23T19:38:01.007Z,62.73
2019-03-23T19:42:09.214Z,62.70
2019-03-23T19:46:18.337Z,62.95
2019-03-23T19:50:26.044Z,63.29
2019-03-23T19:54:33.719Z,63.18
2019-03-23T19:59:02.042Z,63.21
2019-03-23T20:03:04.392Z,63.52
2019-03-23T20:07:11.979Z,64.30
2019-03-23T20:11:19.610Z,64.19
2019-03-23T20:15:27.204Z,64.34
2019-03-23T20:19:35.874Z,64.71
2019-03-23T20:23:43.531Z,64.74
2019-03-23T20:27:51.089Z,64.98
2019-03-23T20:31:58.596Z,64.93
2019-03-23T20:36:06.090Z,65.10
2019-03-23T20:40:14.128Z,65.71
2019-03-23T20:44:21.673Z,65.77
2019-03-23T20:48:29.270Z,66.12
2019-03-23T20:52:36.870Z,66.15
2019-03-23T20:56:44.513Z,66.38
2019-03-23T21:00:52.315Z,66.91
2019-03-23T21:04:59.923Z,66.88
2019-03-23T21:09:10.434Z,67.20
2019-03-23T21:13:17.924Z,67.17
2019-03-23T21:17:25.497Z,67.45
2019-03-23T21:21:33.119Z,67.66
2019-03-23T21:25:40.786Z,68.00
2019-03-23T21:29:48.665Z,68.19
2019-03-23T21:33:56.404Z,68.20
2019-03-23T21:38:05.305Z,68.68
2019-03-23T21:42:14.136Z,68.98
2019-03-23T21:46:21.796Z,68.98
2019-03-23T21:50:30.084Z,69.21
2019-03-23T21:54:38.078Z,69.56
2019-03-23T21:58:48.526Z,69.44
2019-03-23T22:02:56.257Z,70.17
2019-03-23T22:07:03.878Z,69.84
2019-03-23T22:11:11.560Z,70.04
2019-03-23T22:15:19.589Z,70.90
2019-03-23T22:19:27.553Z,70.07
2019-03-23T22:23:36.043Z,69.99
2019-03-23T22:27:44.419Z,70.56
2019-03-23T22:31:52.229Z,69.68
2019-03-23T22:36:00.051Z,70.23
2019-03-23T22:40:10.042Z,70.50
2019-03-23T22:44:20.679Z,70.57
2019-03-23T22:48:28.276Z,70.76
2019-03-23T22:52:35.862Z,70.92
2019-03-23T22:56:43.703Z,70.79
2019-03-23T23:00:52.243Z,70.65
2019-03-23T23:05:00.465Z,71.18
2019-03-23T23:09:11.002Z,71.40
2019-03-23T23:13:18.768Z,71.48
2019-03-23T23:17:26.343Z,71.88
2019-03-23T23:21:34.000Z,72.15
2019-03-23T23:25:41.752Z,71.97
2019-03-23T23:29:49.576Z,72.23
2019-03-23T23:33:57.168Z,72.62
2019-03-23T23:38:04.787Z,72.86
2019-03-23T23:42:12.536Z,72.69
2019-03-23T23:46:20.344Z,73.02
2019-03-23T23:50:27.989Z,72.73
2019-03-23T23:54:35.776Z,73.20
2019-03-23T23:58:46.308Z,73.41
